Time;durP1;ratioP1;P1;durP2;ratioP2;P2;SDS_P1;SDS_P2;PMS_P1;PMS_P2;Temp;Humidity;BMP_temperature;BMP_pressure;BME280_temperature;BME280_humidity;BME280_pressure;Samples;Min_cycle;Max_cycle;Signal;HPM_P1;HPM_P2
2023/10/28 00:02:14;;;;;;;0.75;0.50;;;;;;;18.22;50.48;91958.34;6095445;23;20018;-89
2023/10/28 00:04:40;;;;;;;0.50;0.50;;;;;;;18.17;50.60;91956.53;6114030;23;20024;-90
2023/10/28 00:07:05;;;;;;;0.50;0.47;;;;;;;18.16;50.57;91961.25;6074567;23;20018;-90
2023/10/28 00:09:31;;;;;;;0.73;0.47;;;;;;;18.11;50.55;91959.41;6099342;23;20083;-88
2023/10/28 00:11:56;;;;;;;0.47;0.45;;;;;;;18.14;50.50;91964.53;6075907;23;20021;-88
2023/10/28 00:14:23;;;;;;;0.60;0.32;;;;;;;18.14;50.49;91966.53;6099045;23;20021;-90
2023/10/28 00:16:49;;;;;;;0.55;0.50;;;;;;;18.15;50.86;91966.00;6091918;23;20022;-88
2023/10/28 00:19:16;;;;;;;1.45;0.45;;;;;;;18.11;50.22;91962.16;6098698;23;20080;-88
2023/10/28 00:21:41;;;;;;;0.77;0.45;;;;;;;18.13;50.55;91965.81;6124591;23;20070;-89
2023/10/28 00:24:07;;;;;;;0.70;0.50;;;;;;;18.17;50.43;91962.72;6098405;23;20350;-90
2023/10/28 00:26:34;;;;;;;0.63;0.50;;;;;;;18.19;50.49;91960.16;6099583;23;20022;-89
2023/10/28 00:28:59;;;;;;;0.88;0.50;;;;;;;18.20;50.44;91953.41;6098965;23;20081;-88
2023/10/28 00:31:24;;;;;;;0.88;0.47;;;;;;;18.14;50.28;91959.06;6102960;23;20334;-89
2023/10/28 00:33:51;;;;;;;0.80;0.50;;;;;;;18.14;50.45;91964.53;6075166;23;20010;-88
2023/10/28 00:36:16;;;;;;;0.75;0.40;;;;;;;18.14;50.53;91950.84;6111666;23;20036;-89
2023/10/28 00:38:42;;;;;;;0.77;0.40;;;;;;;18.13;50.52;91954.88;6098697;23;20021;-90
2023/10/28 00:41:07;;;;;;;0.30;0.30;;;;;;;18.10;50.37;91957.97;6074124;23;20366;-89
2023/10/28 00:43:33;;;;;;;0.88;0.40;;;;;;;18.09;50.70;91956.50;6099227;23;20354;-89
2023/10/28 00:45:59;;;;;;;0.95;0.47;;;;;;;18.10;50.30;91950.47;6075822;23;20013;-88
2023/10/28 00:48:25;;;;;;;1.10;0.60;;;;;;;18.15;50.34;91955.06;6074412;23;20101;-90
2023/10/28 00:50:51;;;;;;;0.60;0.50;;;;;;;18.18;50.82;91957.97;6099195;23;20024;-88
2023/10/28 00:53:17;;;;;;;0.55;0.40;;;;;;;18.13;50.38;91956.88;6073759;23;20018;-89
2023/10/28 00:55:42;;;;;;;1.02;0.60;;;;;;;18.18;50.49;91960.72;6075618;23;20089;-88
2023/10/28 00:58:08;;;;;;;0.30;0.30;;;;;;;18.16;50.44;91964.00;6098385;23;20025;-89
2023/10/28 01:00:35;;;;;;;0.63;0.40;;;;;;;18.14;50.09;91964.53;6075053;23;20327;-88
2023/10/28 01:03:00;;;;;;;0.55;0.50;;;;;;;18.14;49.96;91963.81;6074701;23;20066;-88
2023/10/28 01:05:26;;;;;;;1.10;0.60;;;;;;;18.13;50.51;91962.34;6073787;23;20013;-88
2023/10/28 01:07:52;;;;;;;0.63;0.40;;;;;;;18.14;50.45;91970.00;6099335;23;20013;-88
2023/10/28 01:10:29;;;;;;;0.82;0.40;;;;;;;18.15;50.40;91973.47;6123372;23;20017;-89
2023/10/28 01:12:55;;;;;;;0.40;0.20;;;;;;;18.10;50.24;91979.84;6098356;23;20187;-89
2023/10/28 01:15:22;;;;;;;0.50;0.35;;;;;;;18.12;50.37;91975.28;6124109;23;20498;-91
2023/10/28 01:17:48;;;;;;;0.50;0.40;;;;;;;18.19;50.31;91971.09;6118405;23;20018;-90
2023/10/28 01:20:13;;;;;;;1.13;0.50;;;;;;;18.13;50.46;91974.00;6073839;23;20025;-90
2023/10/28 01:22:39;;;;;;;0.40;0.30;;;;;;;18.16;50.16;91972.19;6074949;23;20068;-88
2023/10/28 01:25:04;;;;;;;0.63;0.43;;;;;;;18.15;50.32;91963.25;6097668;23;20013;-88
2023/10/28 01:27:30;;;;;;;0.70;0.50;;;;;;;18.14;50.33;91972.00;6135942;23;20022;-89
2023/10/28 01:29:56;;;;;;;0.52;0.40;;;;;;;18.13;50.39;91976.75;6097975;23;20476;-88
2023/10/28 01:32:21;;;;;;;0.77;0.40;;;;;;;18.18;50.34;91968.91;6093171;23;20365;-89
2023/10/28 01:34:51;;;;;;;0.77;0.50;;;;;;;18.17;50.31;91968.19;6094775;23;20442;-88
2023/10/28 01:37:17;;;;;;;0.38;0.30;;;;;;;18.13;50.17;91984.22;6121441;23;20017;-87
2023/10/28 01:39:48;;;;;;;0.60;0.30;;;;;;;18.14;50.55;91983.69;6074729;23;20449;-90
2023/10/28 01:42:15;;;;;;;1.15;0.50;;;;;;;18.10;50.23;91988.03;6074569;23;20056;-91
2023/10/28 01:44:41;;;;;;;1.20;0.30;;;;;;;18.09;50.71;91983.84;6098912;23;20017;-87
2023/10/28 01:47:09;;;;;;;0.75;0.50;;;;;;;18.14;50.46;91985.69;6074706;23;20016;-89
2023/10/28 01:49:35;;;;;;;0.50;0.30;;;;;;;18.14;50.25;91983.69;6104463;23;20016;-89
2023/10/28 01:52:03;;;;;;;1.35;0.52;;;;;;;18.11;50.25;91987.50;6127769;23;20041;-90
2023/10/28 01:54:35;;;;;;;1.50;0.40;;;;;;;18.12;50.38;91991.69;6103328;23;20009;-87
2023/10/28 01:57:05;;;;;;;0.60;0.40;;;;;;;18.16;50.41;91991.34;6103655;23;20024;-89
2023/10/28 01:59:31;;;;;;;0.40;0.40;;;;;;;18.10;50.30;91996.25;6099725;23;20461;-88
2023/10/28 02:01:57;;;;;;;0.25;0.20;;;;;;;18.09;50.28;91997.50;6097845;23;20025;-89
2023/10/28 02:04:22;;;;;;;0.50;0.30;;;;;;;18.10;50.43;91996.25;6121885;23;20022;-88
2023/10/28 02:06:50;;;;;;;0.35;0.30;;;;;;;18.08;49.90;91996.06;6074060;23;20432;-89
2023/10/28 02:09:17;;;;;;;0.90;0.40;;;;;;;18.08;50.29;91988.56;6125052;23;20052;-88
2023/10/28 02:11:43;;;;;;;0.38;0.30;;;;;;;18.09;50.29;91992.03;6128350;23;20531;-87
2023/10/28 02:14:09;;;;;;;1.48;0.45;;;;;;;18.14;49.97;92011.03;6151820;23;20445;-87
2023/10/28 02:16:36;;;;;;;0.50;0.35;;;;;;;18.08;50.20;91998.78;6110504;23;20259;-90
2023/10/28 02:19:02;;;;;;;0.55;0.30;;;;;;;18.12;50.51;91997.16;6121954;23;20693;-89
2023/10/28 02:21:28;;;;;;;0.35;0.32;;;;;;;18.09;50.28;91995.50;6109996;23;20457;-89
2023/10/28 02:23:53;;;;;;;0.20;0.20;;;;;;;18.07;50.36;91995.31;6122111;23;20025;-88
2023/10/28 02:26:19;;;;;;;0.22;0.22;;;;;;;18.09;50.46;92009.19;6097476;23;20022;-88
2023/10/28 02:28:44;;;;;;;0.82;0.35;;;;;;;18.09;50.44;92014.66;6147162;23;20014;-90
2023/10/28 02:31:10;;;;;;;0.50;0.50;;;;;;;18.10;50.29;92013.38;6127628;23;20032;-88
2023/10/28 02:33:35;;;;;;;0.55;0.40;;;;;;;18.10;50.38;92048.19;6150358;23;20429;-91
2023/10/28 02:36:05;;;;;;;1.30;0.55;;;;;;;18.09;49.92;92063.16;6139969;23;20040;-89
2023/10/28 02:38:31;;;;;;;0.32;0.20;;;;;;;18.12;50.41;92062.81;6115140;23;20005;-90
2023/10/28 02:40:57;;;;;;;0.45;0.30;;;;;;;18.10;50.10;92078.28;6133449;23;20017;-89
2023/10/28 02:43:22;;;;;;;0.52;0.47;;;;;;;18.12;50.41;92078.47;6151218;23;20021;-88
2023/10/28 02:45:48;;;;;;;0.63;0.35;;;;;;;18.10;50.42;92094.69;6128360;23;20020;-91
2023/10/28 02:48:14;;;;;;;0.30;0.30;;;;;;;18.04;50.53;92099.56;6126776;23;20479;-89
2023/10/28 02:50:39;;;;;;;0.55;0.30;;;;;;;18.06;50.42;92099.78;6112661;23;20021;-92
2023/10/28 02:53:04;;;;;;;0.43;0.38;;;;;;;18.05;49.81;92096.31;6126478;23;20021;-89
2023/10/28 02:55:30;;;;;;;0.57;0.40;;;;;;;18.08;50.31;92089.03;6127037;23;20016;-88
2023/10/28 02:57:55;;;;;;;0.47;0.40;;;;;;;18.11;50.09;92096.88;6152401;23;20079;-90
2023/10/28 03:00:22;;;;;;;0.80;0.40;;;;;;;18.11;50.40;92090.69;6151141;23;20026;-89
2023/10/28 03:02:48;;;;;;;0.40;0.40;;;;;;;18.10;49.97;92102.91;6111541;23;20009;-89
2023/10/28 03:05:14;;;;;;;0.93;0.43;;;;;;;18.12;50.00;92109.28;6151688;23;20108;-89
2023/10/28 03:07:41;;;;;;;0.38;0.30;;;;;;;18.10;50.38;92105.63;6166689;23;20013;-90
2023/10/28 03:10:06;;;;;;;0.90;0.57;;;;;;;18.13;50.09;92102.56;6139187;23;20020;-90
2023/10/28 03:12:32;;;;;;;1.98;0.45;;;;;;;18.12;50.34;92105.81;6152911;23;20020;-89
2023/10/28 03:14:57;;;;;;;1.23;0.63;;;;;;;18.07;50.34;92110.16;6109424;23;20061;-88
2023/10/28 03:17:24;;;;;;;0.63;0.32;;;;;;;18.06;50.70;92107.97;6140252;23;20485;-91
2023/10/28 03:19:51;;;;;;;0.57;0.32;;;;;;;18.02;50.56;92099.38;6137382;23;20017;-89
2023/10/28 03:22:16;;;;;;;0.38;0.30;;;;;;;18.09;50.49;92095.97;6105039;23;20356;-91
2023/10/28 03:24:42;;;;;;;0.30;0.30;;;;;;;18.08;50.64;92103.44;6120065;23;20013;-89
2023/10/28 03:27:07;;;;;;;0.68;0.40;;;;;;;18.06;50.02;92107.97;6148675;23;20020;-91
2023/10/28 03:29:33;;;;;;;0.30;0.20;;;;;;;18.08;50.10;92095.22;6154093;23;20507;-90
2023/10/28 03:31:59;;;;;;;0.55;0.32;;;;;;;18.08;50.37;92095.22;6123404;23;20453;-89
2023/10/28 03:34:24;;;;;;;0.28;0.28;;;;;;;18.05;50.29;92098.31;6128538;23;20016;-90
2023/10/28 03:36:50;;;;;;;0.65;0.30;;;;;;;18.09;50.48;92095.97;6107929;23;20021;-91
2023/10/28 03:39:17;;;;;;;0.98;0.40;;;;;;;18.05;50.35;92096.31;6098666;23;20405;-90
2023/10/28 03:41:45;;;;;;;0.30;0.30;;;;;;;18.05;50.18;92093.56;6077132;23;20013;-89
2023/10/28 03:44:10;;;;;;;0.30;0.30;;;;;;;18.06;50.18;92100.50;6098954;23;20085;-89
2023/10/28 03:46:36;;;;;;;0.28;0.20;;;;;;;18.06;50.33;92110.72;6099994;23;20021;-92
2023/10/28 03:49:02;;;;;;;1.88;0.40;;;;;;;18.04;50.19;92100.31;6100259;23;20398;-89
2023/10/28 03:51:27;;;;;;;1.65;0.30;;;;;;;18.10;50.24;92097.44;6074705;23;20103;-89
2023/10/28 03:53:53;;;;;;;0.55;0.50;;;;;;;18.08;50.36;92097.22;6134497;23;20358;-89
2023/10/28 03:56:18;;;;;;;0.43;0.30;;;;;;;18.07;50.06;92091.03;6112591;23;20116;-89
2023/10/28 03:58:44;;;;;;;0.50;0.30;;;;;;;18.01;50.56;92095.91;6099539;23;20037;-89
2023/10/28 04:01:10;;;;;;;0.20;0.20;;;;;;;17.99;50.32;92090.25;6110797;23;20017;-90
2023/10/28 04:03:35;;;;;;;0.30;0.20;;;;;;;18.01;50.47;92086.97;6143203;23;20088;-90
2023/10/28 04:06:01;;;;;;;0.40;0.30;;;;;;;18.03;50.23;92098.84;6152948;23;20017;-89
2023/10/28 04:08:26;;;;;;;0.52;0.30;;;;;;;18.04;50.40;92089.38;6128124;23;20021;-88
2023/10/28 04:10:52;;;;;;;0.60;0.40;;;;;;;18.07;50.21;92093.03;6104536;23;20076;-90
2023/10/28 04:13:18;;;;;;;0.20;0.20;;;;;;;18.05;50.07;92090.09;6112740;23;20022;-91
2023/10/28 04:15:45;;;;;;;0.20;0.20;;;;;;;17.99;50.45;92097.72;6075857;23;20022;-89
2023/10/28 04:18:10;;;;;;;0.63;0.40;;;;;;;18.02;50.31;92099.38;6074430;23;20080;-88
2023/10/28 04:20:37;;;;;;;0.43;0.30;;;;;;;18.02;50.26;92100.13;6088965;23;20394;-91
2023/10/28 04:23:03;;;;;;;0.20;0.20;;;;;;;18.05;50.25;92095.56;6099333;23;20021;-88
2023/10/28 04:25:28;;;;;;;0.40;0.30;;;;;;;18.02;50.27;92097.38;6153520;23;20337;-90
2023/10/28 04:27:54;;;;;;;0.88;0.32;;;;;;;17.99;50.35;92105.94;6128419;23;20330;-90
2023/10/28 04:30:19;;;;;;;0.80;0.30;;;;;;;18.02;50.26;92105.59;6152017;23;20025;-89
2023/10/28 04:32:44;;;;;;;0.40;0.30;;;;;;;17.97;50.59;92101.00;6123447;23;20025;-89
2023/10/28 04:35:10;;;;;;;0.50;0.38;;;;;;;18.02;50.33;92104.84;6131543;23;20017;-88
2023/10/28 04:37:36;;;;;;;0.50;0.30;;;;;;;17.93;50.68;92100.63;6153050;23;20474;-88
2023/10/28 04:40:05;;;;;;;0.30;0.30;;;;;;;18.01;50.54;92108.84;6128300;23;20021;-91
2023/10/28 04:42:31;;;;;;;0.40;0.28;;;;;;;17.94;50.60;92095.91;6111849;23;20021;-88
2023/10/28 04:44:56;;;;;;;0.50;0.30;;;;;;;17.97;50.57;92109.19;6105398;23;20079;-88
2023/10/28 04:47:21;;;;;;;0.63;0.47;;;;;;;17.96;50.28;92094.09;6122645;23;25190;-88
2023/10/28 04:49:47;;;;;;;0.40;0.30;;;;;;;17.98;50.58;92099.72;6124137;23;20010;-88
2023/10/28 04:52:12;;;;;;;1.08;0.30;;;;;;;17.97;50.24;92100.28;6122692;23;20014;-88
2023/10/28 04:54:40;;;;;;;0.50;0.40;;;;;;;17.96;50.53;92102.28;6123676;23;20013;-90
2023/10/28 04:57:06;;;;;;;0.35;0.30;;;;;;;18.01;50.24;92114.31;6098921;23;20041;-90
2023/10/28 04:59:31;;;;;;;0.50;0.40;;;;;;;17.96;50.47;92107.75;6141743;23;20016;-88
2023/10/28 05:01:57;;;;;;;0.32;0.25;;;;;;;17.97;50.46;92103.03;6153390;23;20021;-90
2023/10/28 05:04:26;;;;;;;0.52;0.30;;;;;;;17.98;50.35;92107.94;6123210;23;20469;-89
2023/10/28 05:06:52;;;;;;;0.45;0.35;;;;;;;18.01;50.62;92104.13;6123233;23;20032;-88
2023/10/28 05:09:20;;;;;;;1.10;0.30;;;;;;;18.08;50.14;92116.38;6098037;23;20068;-88
2023/10/28 05:11:46;;;;;;;0.68;0.25;;;;;;;17.99;50.57;92119.59;6123822;23;20441;-89
2023/10/28 05:14:11;;;;;;;1.15;0.47;;;;;;;17.99;50.45;92125.06;6122641;23;20025;-89
2023/10/28 05:16:37;;;;;;;0.25;0.20;;;;;;;18.04;50.30;92132.38;6135936;23;20028;-89
2023/10/28 05:19:02;;;;;;;1.70;0.50;;;;;;;18.02;50.18;92119.25;6105515;23;20050;-89
2023/10/28 05:21:28;;;;;;;0.40;0.20;;;;;;;17.98;50.08;92124.34;6039204;23;20026;-90
2023/10/28 05:23:54;;;;;;;0.30;0.20;;;;;;;17.94;50.73;92110.31;6015629;23;20062;-89
2023/10/28 05:26:19;;;;;;;0.30;0.30;;;;;;;17.95;50.28;92114.50;6039122;23;20037;-88
2023/10/28 05:28:46;;;;;;;0.57;0.35;;;;;;;17.93;50.58;92122.50;6059655;23;20489;-89
2023/10/28 05:31:12;;;;;;;0.22;0.20;;;;;;;17.96;50.97;92126.16;6093654;23;20060;-89
2023/10/28 05:33:38;;;;;;;0.32;0.20;;;;;;;17.92;50.55;92126.50;6068485;23;20018;-90
2023/10/28 05:36:05;;;;;;;0.82;0.30;;;;;;;17.99;50.52;92127.81;6067284;23;20024;-88
2023/10/28 05:38:31;;;;;;;0.22;0.20;;;;;;;17.95;50.26;92119.97;6081176;23;20010;-89
2023/10/28 05:40:57;;;;;;;0.32;0.30;;;;;;;17.95;50.40;92109.03;6067587;23;20453;-88
2023/10/28 05:43:22;;;;;;;0.30;0.20;;;;;;;17.94;50.41;92115.03;6066799;23;20032;-89
2023/10/28 05:45:48;;;;;;;0.20;0.17;;;;;;;17.93;50.40;92124.50;6067884;23;20100;-89
2023/10/28 05:48:15;;;;;;;0.20;0.20;;;;;;;17.99;50.38;92125.06;6089168;23;20103;-89
2023/10/28 05:50:40;;;;;;;0.85;0.40;;;;;;;17.98;50.15;92132.53;6107977;23;20513;-89
2023/10/28 05:53:05;;;;;;;0.88;0.30;;;;;;;17.97;50.43;92136.53;6117916;23;20025;-89
2023/10/28 05:55:31;;;;;;;0.30;0.30;;;;;;;18.00;50.15;92127.25;6122856;23;20013;-87
2023/10/28 05:57:57;;;;;;;0.93;0.40;;;;;;;17.98;50.30;92134.53;6121495;23;20013;-88
2023/10/28 06:00:22;;;;;;;0.95;0.40;;;;;;;17.99;50.48;92144.22;6122342;23;20021;-89
2023/10/28 06:02:48;;;;;;;0.30;0.30;;;;;;;18.01;50.07;92136.19;6147547;23;20314;-89
2023/10/28 06:05:14;;;;;;;0.28;0.22;;;;;;;17.96;50.30;92142.56;6122414;23;20429;-89
2023/10/28 06:07:47;;;;;;;0.32;0.20;;;;;;;17.94;50.35;92145.13;6152560;23;20024;-89
2023/10/28 06:10:12;;;;;;;0.40;0.30;;;;;;;17.96;50.26;92140.56;6121779;23;20164;-88
2023/10/28 06:12:38;;;;;;;0.98;0.40;;;;;;;17.94;50.10;92147.84;6118202;23;20016;-88
2023/10/28 06:15:03;;;;;;;0.85;0.30;;;;;;;17.96;50.45;92148.03;6126887;23;20031;-89
2023/10/28 06:17:29;;;;;;;0.80;0.30;;;;;;;17.97;49.99;92160.44;6147438;23;20021;-89
2023/10/28 06:19:54;;;;;;;0.50;0.30;;;;;;;18.00;50.38;92170.28;6140868;23;20013;-89
2023/10/28 06:22:21;;;;;;;0.20;0.20;;;;;;;17.96;50.15;92162.44;6101178;23;20025;-93
2023/10/28 06:24:49;;;;;;;0.40;0.20;;;;;;;17.96;50.33;92175.38;6153217;23;20087;-88
2023/10/28 06:27:14;;;;;;;0.85;0.30;;;;;;;17.95;50.22;92174.66;6151808;23;20021;-88
2023/10/28 06:29:39;;;;;;;0.40;0.35;;;;;;;17.99;50.40;92171.56;6122672;23;20080;-88
2023/10/28 06:32:06;;;;;;;0.52;0.30;;;;;;;17.99;50.26;92179.75;6097079;23;20078;-89
2023/10/28 06:34:32;;;;;;;0.30;0.30;;;;;;;17.96;50.37;92183.59;6152969;23;20009;-88
2023/10/28 06:36:57;;;;;;;0.20;0.20;;;;;;;18.02;50.22;92186.88;6151516;23;20019;-88
2023/10/28 06:39:23;;;;;;;0.20;0.20;;;;;;;18.01;50.03;92188.16;6151111;23;20017;-90
2023/10/28 06:41:48;;;;;;;0.22;0.22;;;;;;;18.03;49.95;92191.81;6151571;23;20005;-89
2023/10/28 06:44:14;;;;;;;0.30;0.30;;;;;;;18.04;49.83;92195.28;6150839;23;20017;-89
2023/10/28 06:46:40;;;;;;;0.75;0.50;;;;;;;17.99;50.18;92196.16;6152357;23;20028;-91
2023/10/28 06:49:08;;;;;;;1.27;0.93;;;;;;;18.01;50.13;92196.34;6150697;23;20029;-87
2023/10/28 06:51:33;;;;;;;0.17;0.17;;;;;;;18.01;50.14;92202.56;6154453;23;20017;-88
2023/10/28 06:54:00;;;;;;;0.70;0.25;;;;;;;17.98;49.96;92211.84;6154391;23;20442;-88
2023/10/28 06:56:26;;;;;;;0.50;0.30;;;;;;;18.02;50.21;92216.97;6128509;23;20039;-91
2023/10/28 06:58:52;;;;;;;0.40;0.40;;;;;;;18.01;50.05;92218.97;6154701;23;20206;-87
2023/10/28 07:01:18;;;;;;;0.25;0.25;;;;;;;18.00;50.37;92222.97;6153482;23;20024;-88
2023/10/28 07:03:45;;;;;;;3.15;0.47;;;;;;;18.01;50.40;92231.91;6155553;23;20084;-89
2023/10/28 07:06:14;;;;;;;0.90;0.38;;;;;;;18.03;50.21;92221.16;6128548;23;20016;-89
2023/10/28 07:08:43;;;;;;;0.25;0.25;;;;;;;18.04;50.13;92237.03;6154918;23;20101;-90
2023/10/28 07:11:11;;;;;;;0.47;0.20;;;;;;;18.04;50.03;92239.03;6153261;23;20103;-89
2023/10/28 07:13:36;;;;;;;0.20;0.20;;;;;;;18.05;50.20;92232.31;6154842;23;20096;-90
2023/10/28 07:16:03;;;;;;;0.40;0.20;;;;;;;18.06;50.14;92233.78;6154084;23;20024;-89
2023/10/28 07:18:29;;;;;;;0.50;0.30;;;;;;;18.05;49.98;92230.31;6153153;23;20088;-88
2023/10/28 07:20:55;;;;;;;0.60;0.50;;;;;;;18.03;50.03;92245.78;6153171;23;20037;-88
2023/10/28 07:23:21;;;;;;;1.10;0.30;;;;;;;18.02;49.98;92241.56;6153403;23;20464;-88
2023/10/28 07:25:46;;;;;;;1.80;0.40;;;;;;;18.03;50.20;92243.03;6154404;23;20013;-88
2023/10/28 07:28:14;;;;;;;0.47;0.32;;;;;;;18.05;50.02;92249.44;6128904;23;20531;-92
2023/10/28 07:30:48;;;;;;;0.25;0.20;;;;;;;18.05;50.33;92254.19;6178882;23;20648;-88
2023/10/28 07:33:13;;;;;;;0.52;0.22;;;;;;;18.01;50.05;92248.31;6123653;23;20484;-92
2023/10/28 07:35:44;;;;;;;1.35;0.73;;;;;;;18.02;50.06;92247.78;6119996;23;20009;-88
2023/10/28 07:38:10;;;;;;;0.32;0.32;;;;;;;18.04;50.12;92258.91;6126914;23;20067;-91
2023/10/28 07:40:35;;;;;;;0.35;0.25;;;;;;;18.02;50.13;92253.25;6099405;23;20389;-89
2023/10/28 07:43:00;;;;;;;0.60;0.40;;;;;;;18.06;50.01;92261.84;6075597;23;20068;-88
2023/10/28 07:45:26;;;;;;;0.38;0.25;;;;;;;18.06;49.99;92264.59;6123437;23;20022;-88
2023/10/28 07:47:51;;;;;;;0.40;0.20;;;;;;;18.09;50.17;92263.50;6088132;23;20572;-89
2023/10/28 07:50:17;;;;;;;0.28;0.20;;;;;;;18.08;50.05;92264.78;6121346;23;20044;-90
2023/10/28 07:52:42;;;;;;;0.82;0.20;;;;;;;18.06;50.18;92261.84;6107482;23;20408;-88
2023/10/28 07:55:08;;;;;;;0.47;0.20;;;;;;;18.10;50.09;92266.97;6127836;23;20357;-88
2023/10/28 07:57:33;;;;;;;0.75;0.30;;;;;;;18.10;50.59;92272.44;6075538;23;20351;-88
2023/10/28 07:59:59;;;;;;;0.40;0.30;;;;;;;18.08;50.27;92272.25;6122798;23;20017;-88
2023/10/28 08:02:24;;;;;;;0.35;0.30;;;;;;;18.11;49.79;92263.72;6123168;23;20271;-89
2023/10/28 08:04:54;;;;;;;0.40;0.30;;;;;;;18.13;49.80;92269.38;6121463;23;20017;-89
2023/10/28 08:07:19;;;;;;;0.45;0.43;;;;;;;18.14;49.90;92270.13;6099263;23;20018;-89
2023/10/28 08:09:45;;;;;;;0.15;0.15;;;;;;;18.17;49.88;92280.00;6091004;23;20010;-88
2023/10/28 08:12:10;;;;;;;0.30;0.22;;;;;;;18.14;49.75;92276.31;6123017;23;20040;-89
2023/10/28 08:14:36;;;;;;;0.47;0.30;;;;;;;18.14;49.82;92284.53;6100182;23;20028;-91
2023/10/28 08:17:02;;;;;;;0.30;0.30;;;;;;;18.15;49.88;92288.00;6075304;23;20481;-90
2023/10/28 08:19:29;;;;;;;0.20;0.20;;;;;;;18.17;49.61;92292.94;6123572;23;20516;-89
2023/10/28 08:21:55;;;;;;;0.43;0.30;;;;;;;18.20;50.02;92292.56;6116510;23;20018;-89
2023/10/28 08:24:22;;;;;;;0.63;0.52;;;;;;;18.19;49.70;92306.81;6147764;23;20014;-89
2023/10/28 08:26:48;;;;;;;0.38;0.32;;;;;;;18.19;50.05;92306.81;6136544;23;20097;-89
2023/10/28 08:29:14;;;;;;;0.60;0.30;;;;;;;18.19;50.26;92315.72;6095507;23;20024;-89
2023/10/28 08:31:40;;;;;;;0.20;0.20;;;;;;;18.19;50.10;92309.53;6075518;23;20032;-88
2023/10/28 08:34:06;;;;;;;0.63;0.32;;;;;;;18.23;49.63;92307.19;6123120;23;20017;-89
2023/10/28 08:36:35;;;;;;;0.22;0.20;;;;;;;18.22;49.59;92311.91;6130983;23;20020;-88
2023/10/28 08:39:00;;;;;;;0.30;0.30;;;;;;;18.22;50.16;92311.91;6153373;23;20104;-89
2023/10/28 08:41:26;;;;;;;0.50;0.28;;;;;;;18.24;49.87;92319.59;6123165;23;20021;-88
2023/10/28 08:43:53;;;;;;;0.55;0.30;;;;;;;18.23;50.11;92321.59;6098900;23;20182;-90
2023/10/28 08:46:18;;;;;;;1.10;0.40;;;;;;;18.25;49.96;92318.31;6098655;23;20527;-90
2023/10/28 08:48:44;;;;;;;0.20;0.20;;;;;;;18.25;49.97;92315.59;6099501;23;20017;-88
2023/10/28 08:51:09;;;;;;;0.68;0.40;;;;;;;18.23;49.76;92320.84;6113628;23;20080;-89
2023/10/28 08:53:35;;;;;;;0.80;0.30;;;;;;;18.24;50.00;92319.59;6099431;23;20022;-89
2023/10/28 08:56:01;;;;;;;1.65;0.30;;;;;;;18.23;49.89;92324.31;6099533;23;20022;-89
2023/10/28 08:58:27;;;;;;;0.30;0.30;;;;;;;18.24;49.98;92311.38;6122895;23;20096;-89
2023/10/28 09:00:54;;;;;;;0.95;0.30;;;;;;;18.24;50.02;92320.31;6098947;23;20021;-88
2023/10/28 09:03:23;;;;;;;0.28;0.20;;;;;;;18.24;49.80;92323.06;6145980;23;20040;-91
2023/10/28 09:05:54;;;;;;;0.30;0.22;;;;;;;18.23;49.82;92327.06;6124497;23;20021;-88
2023/10/28 09:08:20;;;;;;;0.10;0.10;;;;;;;18.25;50.01;92321.06;6099171;23;20020;-88
2023/10/28 09:10:45;;;;;;;0.25;0.25;;;;;;;18.23;49.95;92321.59;6099311;23;20510;-90
2023/10/28 09:13:13;;;;;;;0.57;0.30;;;;;;;18.24;50.20;92325.78;6097687;23;20013;-89
2023/10/28 09:15:39;;;;;;;0.20;0.20;;;;;;;18.27;50.19;92335.66;6099677;23;20033;-88
2023/10/28 09:18:04;;;;;;;0.13;0.13;;;;;;;18.28;50.10;92339.13;6098204;23;20010;-89
2023/10/28 09:20:29;;;;;;;0.75;0.20;;;;;;;18.26;49.82;92338.94;6123600;23;20029;-89
2023/10/28 09:22:55;;;;;;;0.38;0.20;;;;;;;18.27;49.83;92343.13;6116978;23;20021;-89
2023/10/28 09:25:21;;;;;;;0.28;0.20;;;;;;;18.27;49.92;92338.41;6146089;23;20468;-90
2023/10/28 09:27:47;;;;;;;1.13;0.32;;;;;;;18.28;50.21;92341.88;6099297;23;20469;-90
2023/10/28 09:30:13;;;;;;;0.93;0.30;;;;;;;18.26;49.72;92336.94;6097832;23;20029;-89
2023/10/28 09:32:38;;;;;;;1.42;0.20;;;;;;;18.28;50.01;92333.66;6117107;23;20375;-88
2023/10/28 09:35:07;;;;;;;0.30;0.30;;;;;;;18.28;49.80;92328.94;6122687;23;20013;-89
2023/10/28 09:37:37;;;;;;;0.70;0.30;;;;;;;18.28;50.17;92325.47;6110961;23;20013;-88
2023/10/28 09:40:05;;;;;;;0.70;0.40;;;;;;;18.30;49.74;92336.59;6098847;23;20088;-89
2023/10/28 09:42:32;;;;;;;0.40;0.30;;;;;;;18.28;49.90;92326.19;6128343;23;20021;-90
2023/10/28 09:44:59;;;;;;;0.22;0.22;;;;;;;18.29;50.22;92341.34;6152147;23;20009;-89
2023/10/28 09:47:31;;;;;;;0.63;0.30;;;;;;;18.29;49.80;92330.41;6152218;23;20021;-90
2023/10/28 09:50:00;;;;;;;0.65;0.20;;;;;;;18.29;49.80;92344.06;6152279;23;20009;-88
2023/10/28 09:52:25;;;;;;;0.75;0.20;;;;;;;18.29;49.84;92343.34;6152122;23;20028;-91
2023/10/28 09:54:51;;;;;;;0.20;0.20;;;;;;;18.27;49.92;92332.94;6152413;23;20009;-89
2023/10/28 09:57:16;;;;;;;0.57;0.30;;;;;;;18.31;49.71;92335.34;6126936;23;20025;-90
2023/10/28 09:59:44;;;;;;;0.30;0.22;;;;;;;18.29;49.67;92335.88;6152066;23;20017;-88
2023/10/28 10:02:13;;;;;;;0.57;0.30;;;;;;;18.30;49.83;92334.59;6151566;23;20027;-89
2023/10/28 10:04:41;;;;;;;0.43;0.30;;;;;;;18.31;50.08;92332.59;6151230;23;20017;-88
2023/10/28 10:07:06;;;;;;;0.28;0.20;;;;;;;18.30;49.85;92339.34;6177091;23;20028;-89
2023/10/28 10:09:43;;;;;;;0.45;0.20;;;;;;;18.32;50.07;92339.53;6122641;23;20315;-89
2023/10/28 10:12:10;;;;;;;0.10;0.10;;;;;;;18.30;49.58;92336.59;6122115;23;20384;-91
2023/10/28 10:14:37;;;;;;;0.30;0.13;;;;;;;18.32;50.11;92340.28;6117447;23;20012;-91
2023/10/28 10:17:11;;;;;;;0.30;0.28;;;;;;;18.29;49.72;92359.75;6151268;23;20025;-88
2023/10/28 10:19:36;;;;;;;0.88;0.40;;;;;;;18.33;50.17;92358.16;6152793;23;20021;-92
2023/10/28 10:22:03;;;;;;;0.32;0.20;;;;;;;18.29;49.74;92357.03;6152059;23;20028;-88
2023/10/28 10:24:28;;;;;;;0.35;0.30;;;;;;;18.33;50.00;92352.69;6126558;23;20453;-90
2023/10/28 10:27:00;;;;;;;0.30;0.25;;;;;;;18.34;49.94;92364.38;6152283;23;20047;-89
2023/10/28 10:29:26;;;;;;;0.20;0.20;;;;;;;18.32;49.74;92353.94;6151526;23;20013;-89
2023/10/28 10:31:52;;;;;;;0.20;0.20;;;;;;;18.33;49.70;92352.69;6152411;23;20017;-89
2023/10/28 10:34:45;;;;;;;0.40;0.20;;;;;;;18.30;50.22;92350.28;6150719;23;20095;-90
2023/10/28 10:37:22;;;;;;;0.55;0.22;;;;;;;18.30;49.88;92359.22;6153074;23;20444;-89
2023/10/28 10:39:47;;;;;;;0.40;0.30;;;;;;;18.29;50.05;92360.50;6152408;23;20012;-89
2023/10/28 10:42:13;;;;;;;0.10;0.10;;;;;;;18.28;49.79;92342.59;6151001;23;20021;-88
2023/10/28 10:44:39;;;;;;;0.15;0.15;;;;;;;18.33;50.02;92344.47;6151044;23;20013;-88
2023/10/28 10:47:08;;;;;;;0.40;0.20;;;;;;;18.31;50.35;92336.06;6151556;23;20025;-91
2023/10/28 10:49:34;;;;;;;0.20;0.20;;;;;;;18.34;50.13;92335.00;6152451;23;20013;-89
2023/10/28 10:52:00;;;;;;;0.60;0.35;;;;;;;18.30;49.71;92329.13;6151939;23;20067;-91
2023/10/28 10:54:38;;;;;;;0.32;0.30;;;;;;;18.30;49.98;92331.88;6151160;23;20037;-90
2023/10/28 10:57:04;;;;;;;0.13;0.13;;;;;;;18.32;50.29;92331.31;6152160;23;20024;-88
2023/10/28 10:59:31;;;;;;;0.22;0.20;;;;;;;18.33;49.90;92327.31;6152029;23;20088;-89
2023/10/28 11:01:57;;;;;;;0.28;0.20;;;;;;;18.31;50.00;92325.13;6152439;23;20009;-92
2023/10/28 11:04:23;;;;;;;0.10;0.10;;;;;;;18.31;50.38;92327.88;6151651;23;20017;-89
2023/10/28 11:06:51;;;;;;;0.30;0.28;;;;;;;18.31;49.85;92325.13;6152633;23;20091;-87
2023/10/28 11:09:17;;;;;;;0.30;0.20;;;;;;;18.31;49.83;92327.13;6150443;23;20028;-90
2023/10/28 11:11:42;;;;;;;0.30;0.20;;;;;;;18.33;49.84;92330.06;6151557;23;20017;-89
2023/10/28 11:14:08;;;;;;;0.10;0.10;;;;;;;18.32;49.75;92334.06;6126869;23;20457;-91
2023/10/28 11:16:33;;;;;;;0.45;0.15;;;;;;;18.31;49.70;92336.06;6127467;23;20449;-90
2023/10/28 11:19:02;;;;;;;0.40;0.30;;;;;;;18.30;49.86;92336.59;6151633;23;20021;-88
2023/10/28 11:21:28;;;;;;;0.25;0.20;;;;;;;18.29;50.00;92335.13;6150703;23;20078;-89
2023/10/28 11:23:54;;;;;;;2.15;0.32;;;;;;;18.29;50.12;92340.59;6127391;23;20021;-89
2023/10/28 11:26:19;;;;;;;0.20;0.20;;;;;;;18.32;50.01;92328.59;6151432;23;20017;-88
2023/10/28 11:28:45;;;;;;;1.05;0.50;;;;;;;18.31;49.70;92338.81;6127612;23;20091;-88
2023/10/28 11:31:11;;;;;;;0.55;0.45;;;;;;;18.33;50.09;92333.53;6150618;23;20035;-90